Terminal Aerodrome Forecast
Issued by NWS Tulsa, OK

Home | Current Version | Previous Version | Text Only | Print | Product List | Glossary On
Versions: 1 2 3 4 5 6 7 8 9 10 11 12 13
276
FTUS44 KTSA 211135
TAFFSM
TAF
KFSM 211135Z 2112/2212 27007KT P6SM SCT020 BKN060
      TEMPO 2112/2116 5SM -RA BR BKN020
     FM211700 31010KT P6SM SCT030 BKN060
     FM220100 29005KT P6SM SKC
     FM220900 VRB03KT 3SM BR SKC=

USA.gov is the U.S. government's official web portal to all federal, state and local government web resources and services.